sensor_id;sensor_type;location;lat;lon;timestamp;pressure;altitude;pressure_sealevel;temperature;humidity
39275;BME280;24980;48.874;2.332;2023-04-05T00:01:02;101916.83;;;20.64;50.19
39275;BME280;24980;48.874;2.332;2023-04-05T00:03:30;101917.46;;;20.62;50.20
39275;BME280;24980;48.874;2.332;2023-04-05T00:06:01;101916.78;;;20.60;50.22
39275;BME280;24980;48.874;2.332;2023-04-05T00:08:32;101913.03;;;20.58;50.23
39275;BME280;24980;48.874;2.332;2023-04-05T00:11:03;101913.30;;;20.57;50.25
39275;BME280;24980;48.874;2.332;2023-04-05T00:13:31;101912.68;;;20.56;50.28
39275;BME280;24980;48.874;2.332;2023-04-05T00:16:01;101914.02;;;20.54;50.30
39275;BME280;24980;48.874;2.332;2023-04-05T00:18:32;101913.08;;;20.53;50.33
39275;BME280;24980;48.874;2.332;2023-04-05T00:21:02;101910.62;;;20.52;50.35
39275;BME280;24980;48.874;2.332;2023-04-05T00:23:32;101911.03;;;20.50;50.36
39275;BME280;24980;48.874;2.332;2023-04-05T00:26:03;101905.95;;;20.48;50.39
39275;BME280;24980;48.874;2.332;2023-04-05T00:28:36;101905.37;;;20.47;50.44
39275;BME280;24980;48.874;2.332;2023-04-05T00:31:04;101906.70;;;20.47;50.50
39275;BME280;24980;48.874;2.332;2023-04-05T00:33:36;101908.05;;;20.46;50.51
39275;BME280;24980;48.874;2.332;2023-04-05T00:36:08;101908.11;;;20.45;50.53
39275;BME280;24980;48.874;2.332;2023-04-05T00:38:34;101905.92;;;20.44;50.57
39275;BME280;24980;48.874;2.332;2023-04-05T00:41:04;101904.31;;;20.43;50.63
39275;BME280;24980;48.874;2.332;2023-04-05T00:43:34;101905.73;;;20.43;50.71
39275;BME280;24980;48.874;2.332;2023-04-05T00:46:05;101903.88;;;20.42;50.77
39275;BME280;24980;48.874;2.332;2023-04-05T00:48:36;101903.30;;;20.42;50.83
39275;BME280;24980;48.874;2.332;2023-04-05T00:51:04;101900.77;;;20.41;50.86
39275;BME280;24980;48.874;2.332;2023-04-05T00:53:35;101894.86;;;20.41;50.91
39275;BME280;24980;48.874;2.332;2023-04-05T00:56:08;101894.76;;;20.40;50.95
39275;BME280;24980;48.874;2.332;2023-04-05T00:58:35;101890.53;;;20.39;50.98
39275;BME280;24980;48.874;2.332;2023-04-05T01:01:21;101896.03;;;20.39;50.99
39275;BME280;24980;48.874;2.332;2023-04-05T01:03:37;101891.27;;;20.37;50.98
39275;BME280;24980;48.874;2.332;2023-04-05T01:06:27;101892.71;;;20.35;50.93
39275;BME280;24980;48.874;2.332;2023-04-05T01:08:44;101891.41;;;20.34;50.90
39275;BME280;24980;48.874;2.332;2023-04-05T01:11:09;101883.75;;;20.33;50.86
39275;BME280;24980;48.874;2.332;2023-04-05T01:13:38;101880.89;;;20.32;50.82
39275;BME280;24980;48.874;2.332;2023-04-05T01:16:08;101880.59;;;20.30;50.77
39275;BME280;24980;48.874;2.332;2023-04-05T01:18:39;101880.17;;;20.28;50.74
39275;BME280;24980;48.874;2.332;2023-04-05T01:23:45;101870.63;;;20.23;50.69
39275;BME280;24980;48.874;2.332;2023-04-05T01:31:55;101859.50;;;20.18;50.67
39275;BME280;24980;48.874;2.332;2023-04-05T01:33:47;101857.55;;;20.17;50.67
39275;BME280;24980;48.874;2.332;2023-04-05T01:36:30;101859.31;;;20.16;50.66
39275;BME280;24980;48.874;2.332;2023-04-05T01:38:45;101858.50;;;20.13;50.66
39275;BME280;24980;48.874;2.332;2023-04-05T01:41:14;101857.17;;;20.12;50.66
39275;BME280;24980;48.874;2.332;2023-04-05T01:43:45;101854.61;;;20.11;50.66
39275;BME280;24980;48.874;2.332;2023-04-05T01:46:15;101853.34;;;20.10;50.66
39275;BME280;24980;48.874;2.332;2023-04-05T01:48:45;101850.81;;;20.09;50.66
39275;BME280;24980;48.874;2.332;2023-04-05T01:51:15;101847.17;;;20.07;50.64
39275;BME280;24980;48.874;2.332;2023-04-05T01:53:45;101848.86;;;20.06;50.64
39275;BME280;24980;48.874;2.332;2023-04-05T01:56:15;101851.11;;;20.05;50.64
39275;BME280;24980;48.874;2.332;2023-04-05T01:58:45;101848.14;;;20.03;50.64
39275;BME280;24980;48.874;2.332;2023-04-05T02:03:45;101847.17;;;20.00;50.65
39275;BME280;24980;48.874;2.332;2023-04-05T02:06:15;101839.45;;;19.99;50.64
39275;BME280;24980;48.874;2.332;2023-04-05T02:08:45;101837.48;;;19.98;50.67
39275;BME280;24980;48.874;2.332;2023-04-05T02:11:16;101832.25;;;19.97;50.69
39275;BME280;24980;48.874;2.332;2023-04-05T02:13:48;101831.25;;;19.96;50.73
39275;BME280;24980;48.874;2.332;2023-04-05T02:16:16;101829.22;;;19.96;50.80
39275;BME280;24980;48.874;2.332;2023-04-05T02:18:46;101826.52;;;19.95;50.85
39275;BME280;24980;48.874;2.332;2023-04-05T02:21:16;101822.72;;;19.95;50.92
39275;BME280;24980;48.874;2.332;2023-04-05T02:23:46;101824.48;;;19.95;50.98
39275;BME280;24980;48.874;2.332;2023-04-05T02:26:16;101817.91;;;19.94;51.01
39275;BME280;24980;48.874;2.332;2023-04-05T02:28:47;101820.53;;;19.93;51.02
39275;BME280;24980;48.874;2.332;2023-04-05T02:31:17;101818.58;;;19.92;51.00
39275;BME280;24980;48.874;2.332;2023-04-05T02:33:47;101815.69;;;19.91;51.02
39275;BME280;24980;48.874;2.332;2023-04-05T02:36:17;101818.72;;;19.91;51.06
39275;BME280;24980;48.874;2.332;2023-04-05T02:38:47;101811.91;;;19.90;51.10
39275;BME280;24980;48.874;2.332;2023-04-05T02:41:17;101812.08;;;19.89;51.13
39275;BME280;24980;48.874;2.332;2023-04-05T02:43:47;101811.97;;;19.89;51.14
39275;BME280;24980;48.874;2.332;2023-04-05T02:46:17;101808.61;;;19.87;51.13
39275;BME280;24980;48.874;2.332;2023-04-05T02:48:47;101811.70;;;19.86;51.11
39275;BME280;24980;48.874;2.332;2023-04-05T02:51:17;101812.52;;;19.85;51.10
39275;BME280;24980;48.874;2.332;2023-04-05T02:53:48;101810.07;;;19.83;51.06
39275;BME280;24980;48.874;2.332;2023-04-05T02:56:18;101808.62;;;19.82;51.05
39275;BME280;24980;48.874;2.332;2023-04-05T02:58:48;101806.77;;;19.81;51.01
39275;BME280;24980;48.874;2.332;2023-04-05T03:01:18;101811.03;;;19.80;50.99
39275;BME280;24980;48.874;2.332;2023-04-05T03:03:49;101811.27;;;19.78;50.98
39275;BME280;24980;48.874;2.332;2023-04-05T03:06:21;101807.39;;;19.77;50.95
39275;BME280;24980;48.874;2.332;2023-04-05T03:08:49;101803.92;;;19.76;50.94
39275;BME280;24980;48.874;2.332;2023-04-05T03:11:19;101798.60;;;19.75;50.93
39275;BME280;24980;48.874;2.332;2023-04-05T03:13:49;101795.91;;;19.73;50.93
39275;BME280;24980;48.874;2.332;2023-04-05T03:16:19;101797.47;;;19.71;50.92
39275;BME280;24980;48.874;2.332;2023-04-05T03:18:49;101798.23;;;19.70;50.90
39275;BME280;24980;48.874;2.332;2023-04-05T03:21:19;101802.51;;;19.69;50.90
39275;BME280;24980;48.874;2.332;2023-04-05T03:23:50;101806.45;;;19.69;50.89
39275;BME280;24980;48.874;2.332;2023-04-05T03:26:20;101805.02;;;19.67;50.90
39275;BME280;24980;48.874;2.332;2023-04-05T03:28:50;101806.17;;;19.66;50.89
39275;BME280;24980;48.874;2.332;2023-04-05T03:31:20;101802.95;;;19.65;50.88
39275;BME280;24980;48.874;2.332;2023-04-05T03:33:50;101805.06;;;19.64;50.88
39275;BME280;24980;48.874;2.332;2023-04-05T03:36:20;101806.97;;;19.63;50.88
39275;BME280;24980;48.874;2.332;2023-04-05T03:38:53;101801.16;;;19.61;50.89
39275;BME280;24980;48.874;2.332;2023-04-05T03:43:52;101805.19;;;19.61;50.90
39275;BME280;24980;48.874;2.332;2023-04-05T03:46:22;101809.62;;;19.60;50.92
39275;BME280;24980;48.874;2.332;2023-04-05T03:48:52;101811.70;;;19.59;50.93
39275;BME280;24980;48.874;2.332;2023-04-05T03:51:22;101802.71;;;19.57;50.94
39275;BME280;24980;48.874;2.332;2023-04-05T03:53:52;101804.11;;;19.56;50.94
39275;BME280;24980;48.874;2.332;2023-04-05T03:56:22;101806.05;;;19.56;50.95
39275;BME280;24980;48.874;2.332;2023-04-05T03:58:52;101803.62;;;19.55;50.95
39275;BME280;24980;48.874;2.332;2023-04-05T04:01:22;101807.47;;;19.54;50.95
39275;BME280;24980;48.874;2.332;2023-04-05T04:03:53;101807.44;;;19.53;50.96
39275;BME280;24980;48.874;2.332;2023-04-05T04:06:22;101805.17;;;19.53;50.96
39275;BME280;24980;48.874;2.332;2023-04-05T04:08:52;101803.82;;;19.51;50.96
39275;BME280;24980;48.874;2.332;2023-04-05T04:11:23;101804.30;;;19.50;50.97
39275;BME280;24980;48.874;2.332;2023-04-05T04:13:53;101802.51;;;19.49;50.98
39275;BME280;24980;48.874;2.332;2023-04-05T04:16:26;101797.47;;;19.48;51.00
39275;BME280;24980;48.874;2.332;2023-04-05T04:21:26;101798.52;;;19.46;51.04
39275;BME280;24980;48.874;2.332;2023-04-05T04:23:54;101794.41;;;19.45;51.05
39275;BME280;24980;48.874;2.332;2023-04-05T04:26:25;101792.02;;;19.43;51.06
39275;BME280;24980;48.874;2.332;2023-04-05T04:28:55;101796.63;;;19.43;51.06
39275;BME280;24980;48.874;2.332;2023-04-05T04:31:25;101800.43;;;19.42;51.07
39275;BME280;24980;48.874;2.332;2023-04-05T04:33:55;101799.14;;;19.41;51.08
39275;BME280;24980;48.874;2.332;2023-04-05T04:36:25;101803.00;;;19.41;51.09
39275;BME280;24980;48.874;2.332;2023-04-05T04:38:56;101804.80;;;19.40;51.10
39275;BME280;24980;48.874;2.332;2023-04-05T04:41:25;101801.28;;;19.39;51.10
39275;BME280;24980;48.874;2.332;2023-04-05T04:43:55;101796.72;;;19.38;51.11
39275;BME280;24980;48.874;2.332;2023-04-05T04:46:25;101796.95;;;19.37;51.12
39275;BME280;24980;48.874;2.332;2023-04-05T04:48:56;101797.80;;;19.36;51.12
39275;BME280;24980;48.874;2.332;2023-04-05T04:51:25;101795.00;;;19.35;51.12
39275;BME280;24980;48.874;2.332;2023-04-05T04:54:01;101793.80;;;19.34;51.13
39275;BME280;24980;48.874;2.332;2023-04-05T04:56:26;101791.94;;;19.33;51.12
39275;BME280;24980;48.874;2.332;2023-04-05T04:58:56;101794.29;;;19.32;51.11
39275;BME280;24980;48.874;2.332;2023-04-05T05:01:26;101789.97;;;19.30;51.11
39275;BME280;24980;48.874;2.332;2023-04-05T05:03:56;101787.38;;;19.29;51.12
39275;BME280;24980;48.874;2.332;2023-04-05T05:06:26;101786.09;;;19.28;51.12
39275;BME280;24980;48.874;2.332;2023-04-05T05:08:56;101786.68;;;19.28;51.12
39275;BME280;24980;48.874;2.332;2023-04-05T05:11:26;101783.28;;;19.27;51.12
39275;BME280;24980;48.874;2.332;2023-04-05T05:13:56;101784.97;;;19.26;51.13
39275;BME280;24980;48.874;2.332;2023-04-05T05:16:27;101782.50;;;19.24;51.13
39275;BME280;24980;48.874;2.332;2023-04-05T05:18:57;101780.55;;;19.23;51.12
39275;BME280;24980;48.874;2.332;2023-04-05T05:21:27;101779.91;;;19.23;51.14
39275;BME280;24980;48.874;2.332;2023-04-05T05:23:57;101779.88;;;19.22;51.13
39275;BME280;24980;48.874;2.332;2023-04-05T05:26:27;101779.69;;;19.21;51.13
39275;BME280;24980;48.874;2.332;2023-04-05T05:29:00;101787.23;;;19.20;51.14
39275;BME280;24980;48.874;2.332;2023-04-05T05:31:33;101784.47;;;19.19;51.14
39275;BME280;24980;48.874;2.332;2023-04-05T05:33:59;101788.14;;;19.18;51.15
39275;BME280;24980;48.874;2.332;2023-04-05T05:36:29;101778.78;;;19.17;51.16
39275;BME280;24980;48.874;2.332;2023-04-05T05:39:01;101782.77;;;19.17;51.16
39275;BME280;24980;48.874;2.332;2023-04-05T05:41:30;101783.73;;;19.15;51.16
39275;BME280;24980;48.874;2.332;2023-04-05T05:44:00;101786.84;;;19.15;51.18
39275;BME280;24980;48.874;2.332;2023-04-05T05:46:30;101787.23;;;19.14;51.18
39275;BME280;24980;48.874;2.332;2023-04-05T05:49:00;101792.55;;;19.13;51.18
39275;BME280;24980;48.874;2.332;2023-04-05T05:51:32;101794.64;;;19.13;51.19
39275;BME280;24980;48.874;2.332;2023-04-05T05:54:00;101788.38;;;19.11;51.20
39275;BME280;24980;48.874;2.332;2023-04-05T05:56:44;101788.37;;;19.11;51.21
39275;BME280;24980;48.874;2.332;2023-04-05T05:59:00;101788.38;;;19.11;51.21
39275;BME280;24980;48.874;2.332;2023-04-05T06:01:31;101790.22;;;19.11;51.21
39275;BME280;24980;48.874;2.332;2023-04-05T06:04:01;101789.54;;;19.09;51.23
39275;BME280;24980;48.874;2.332;2023-04-05T06:06:31;101789.94;;;19.08;51.23
39275;BME280;24980;48.874;2.332;2023-04-05T06:09:02;101790.01;;;19.08;51.24
39275;BME280;24980;48.874;2.332;2023-04-05T06:11:31;101794.38;;;19.07;51.27
39275;BME280;24980;48.874;2.332;2023-04-05T06:14:01;101796.73;;;19.07;51.27
39275;BME280;24980;48.874;2.332;2023-04-05T06:16:32;101797.89;;;19.06;51.28
39275;BME280;24980;48.874;2.332;2023-04-05T06:19:02;101796.95;;;19.05;51.28
39275;BME280;24980;48.874;2.332;2023-04-05T06:21:35;101798.88;;;19.03;51.30
39275;BME280;24980;48.874;2.332;2023-04-05T06:24:03;101802.31;;;19.03;51.30
39275;BME280;24980;48.874;2.332;2023-04-05T06:26:33;101801.52;;;19.02;51.31
39275;BME280;24980;48.874;2.332;2023-04-05T06:31:35;101809.41;;;19.01;51.32
39275;BME280;24980;48.874;2.332;2023-04-05T06:34:04;101811.44;;;19.02;51.34
39275;BME280;24980;48.874;2.332;2023-04-05T06:36:34;101806.30;;;19.01;51.40
39275;BME280;24980;48.874;2.332;2023-04-05T06:39:13;101804.88;;;19.02;51.46
39275;BME280;24980;48.874;2.332;2023-04-05T06:41:35;101800.62;;;19.03;51.52
39275;BME280;24980;48.874;2.332;2023-04-05T06:44:08;101805.33;;;19.03;51.59
39275;BME280;24980;48.874;2.332;2023-04-05T06:46:36;101807.36;;;19.03;51.62
39275;BME280;24980;48.874;2.332;2023-04-05T06:49:06;101810.28;;;19.04;51.65
39275;BME280;24980;48.874;2.332;2023-04-05T06:51:36;101807.02;;;19.03;51.69
39275;BME280;24980;48.874;2.332;2023-04-05T06:54:06;101812.91;;;19.03;51.77
39275;BME280;24980;48.874;2.332;2023-04-05T06:56:39;101813.73;;;19.03;51.85
39275;BME280;24980;48.874;2.332;2023-04-05T06:59:08;101809.73;;;19.04;51.91
39275;BME280;24980;48.874;2.332;2023-04-05T07:01:39;101810.39;;;19.05;51.97
39275;BME280;24980;48.874;2.332;2023-04-05T07:04:24;101813.50;;;19.05;51.99
39275;BME280;24980;48.874;2.332;2023-04-05T07:06:44;101817.45;;;19.05;52.00
39275;BME280;24980;48.874;2.332;2023-04-05T07:09:09;101819.55;;;19.05;52.04
39275;BME280;24980;48.874;2.332;2023-04-05T07:11:39;101822.75;;;19.05;52.09
39275;BME280;24980;48.874;2.332;2023-04-05T07:14:09;101824.84;;;19.04;52.13
39275;BME280;24980;48.874;2.332;2023-04-05T07:16:39;101826.51;;;19.04;52.14
39275;BME280;24980;48.874;2.332;2023-04-05T07:19:11;101825.27;;;19.04;52.12
39275;BME280;24980;48.874;2.332;2023-04-05T07:21:40;101825.15;;;19.02;52.12
39275;BME280;24980;48.874;2.332;2023-04-05T07:24:10;101828.66;;;19.02;52.11
39275;BME280;24980;48.874;2.332;2023-04-05T07:26:40;101824.95;;;19.01;52.09
39275;BME280;24980;48.874;2.332;2023-04-05T07:29:11;101833.80;;;19.02;52.08
39275;BME280;24980;48.874;2.332;2023-04-05T07:31:41;101832.81;;;19.03;52.03
39275;BME280;24980;48.874;2.332;2023-04-05T07:34:12;101828.94;;;19.04;52.01
39275;BME280;24980;48.874;2.332;2023-04-05T07:36:42;101829.53;;;19.04;51.99
39275;BME280;24980;48.874;2.332;2023-04-05T07:39:12;101835.08;;;19.04;51.99
39275;BME280;24980;48.874;2.332;2023-04-05T07:41:42;101828.00;;;19.02;52.01
39275;BME280;24980;48.874;2.332;2023-04-05T07:44:12;101826.06;;;19.01;52.01
39275;BME280;24980;48.874;2.332;2023-04-05T07:46:42;101828.13;;;19.01;52.02
39275;BME280;24980;48.874;2.332;2023-04-05T07:49:15;101823.61;;;19.00;52.02
39275;BME280;24980;48.874;2.332;2023-04-05T07:51:42;101825.70;;;19.00;52.02
39275;BME280;24980;48.874;2.332;2023-04-05T07:54:12;101826.53;;;18.99;52.03
39275;BME280;24980;48.874;2.332;2023-04-05T07:56:42;101822.56;;;18.98;52.05
39275;BME280;24980;48.874;2.332;2023-04-05T07:59:13;101814.25;;;18.97;52.06
39275;BME280;24980;48.874;2.332;2023-04-05T08:01:43;101815.31;;;18.96;52.08
39275;BME280;24980;48.874;2.332;2023-04-05T08:04:13;101814.88;;;18.95;52.10
39275;BME280;24980;48.874;2.332;2023-04-05T08:06:43;101812.36;;;18.94;52.13
39275;BME280;24980;48.874;2.332;2023-04-05T08:09:13;101813.84;;;18.94;52.15
39275;BME280;24980;48.874;2.332;2023-04-05T08:11:43;101808.99;;;18.94;52.16
39275;BME280;24980;48.874;2.332;2023-04-05T08:14:14;101812.34;;;18.93;52.16
39275;BME280;24980;48.874;2.332;2023-04-05T08:16:43;101815.61;;;18.93;52.16
39275;BME280;24980;48.874;2.332;2023-04-05T08:19:14;101814.36;;;18.93;52.16
39275;BME280;24980;48.874;2.332;2023-04-05T08:21:44;101819.73;;;18.94;52.17
39275;BME280;24980;48.874;2.332;2023-04-05T08:24:14;101823.87;;;18.94;52.17
39275;BME280;24980;48.874;2.332;2023-04-05T08:26:50;101821.66;;;18.95;52.17
39275;BME280;24980;48.874;2.332;2023-04-05T08:29:14;101823.68;;;18.95;52.17
39275;BME280;24980;48.874;2.332;2023-04-05T08:31:54;101825.80;;;18.95;52.17
39275;BME280;24980;48.874;2.332;2023-04-05T08:34:15;101824.49;;;18.97;52.16
39275;BME280;24980;48.874;2.332;2023-04-05T08:36:46;101827.19;;;18.99;52.16
39275;BME280;24980;48.874;2.332;2023-04-05T08:39:16;101823.59;;;18.99;52.16
39275;BME280;24980;48.874;2.332;2023-04-05T08:41:54;101826.27;;;18.99;52.16
39275;BME280;24980;48.874;2.332;2023-04-05T08:44:18;101827.61;;;18.99;52.15
39275;BME280;24980;48.874;2.332;2023-04-05T08:46:53;101827.72;;;19.00;52.13
39275;BME280;24980;48.874;2.332;2023-04-05T08:49:18;101826.97;;;19.01;52.12
39275;BME280;24980;48.874;2.332;2023-04-05T08:51:52;101823.39;;;19.03;52.12
39275;BME280;24980;48.874;2.332;2023-04-05T08:54:18;101820.73;;;19.04;52.12
39275;BME280;24980;48.874;2.332;2023-04-05T08:56:49;101821.30;;;19.04;52.10
39275;BME280;24980;48.874;2.332;2023-04-05T08:59:20;101828.28;;;19.04;52.09
39275;BME280;24980;48.874;2.332;2023-04-05T09:01:56;101829.48;;;19.06;52.08
39275;BME280;24980;48.874;2.332;2023-04-05T09:04:21;101826.66;;;19.08;52.05
39275;BME280;24980;48.874;2.332;2023-04-05T09:06:58;101830.14;;;19.10;52.03
39275;BME280;24980;48.874;2.332;2023-04-05T09:09:21;101825.70;;;19.12;52.02
39275;BME280;24980;48.874;2.332;2023-04-05T09:11:51;101823.54;;;19.13;52.02
39275;BME280;24980;48.874;2.332;2023-04-05T09:14:25;101825.80;;;19.14;52.02
39275;BME280;24980;48.874;2.332;2023-04-05T09:16:52;101823.88;;;19.14;52.05
39275;BME280;24980;48.874;2.332;2023-04-05T09:19:23;101822.62;;;19.14;52.07
39275;BME280;24980;48.874;2.332;2023-04-05T09:22:08;101825.02;;;19.16;52.08
39275;BME280;24980;48.874;2.332;2023-04-05T09:24:35;101824.34;;;19.17;52.07
39275;BME280;24980;48.874;2.332;2023-04-05T09:27:05;101822.86;;;19.18;52.05
39275;BME280;24980;48.874;2.332;2023-04-05T09:29:29;101819.61;;;19.21;52.04
39275;BME280;24980;48.874;2.332;2023-04-05T09:31:59;101820.89;;;19.22;52.06
39275;BME280;24980;48.874;2.332;2023-04-05T09:34:28;101818.40;;;19.25;52.07
39275;BME280;24980;48.874;2.332;2023-04-05T09:36:57;101818.84;;;19.27;52.07
39275;BME280;24980;48.874;2.332;2023-04-05T09:39:31;101816.34;;;19.28;52.04
39275;BME280;24980;48.874;2.332;2023-04-05T09:42:04;101814.34;;;19.29;52.01
39275;BME280;24980;48.874;2.332;2023-04-05T09:44:51;101807.70;;;19.30;51.97
39275;BME280;24980;48.874;2.332;2023-04-05T09:47:21;101806.58;;;19.34;51.94
39275;BME280;24980;48.874;2.332;2023-04-05T09:49:31;101807.22;;;19.36;51.89
39275;BME280;24980;48.874;2.332;2023-04-05T09:51:58;101803.86;;;19.37;51.86
39275;BME280;24980;48.874;2.332;2023-04-05T09:54:28;101806.05;;;19.39;51.84
39275;BME280;24980;48.874;2.332;2023-04-05T09:56:58;101804.30;;;19.42;51.82
39275;BME280;24980;48.874;2.332;2023-04-05T09:59:28;101799.59;;;19.43;51.81
39275;BME280;24980;48.874;2.332;2023-04-05T10:01:58;101799.36;;;19.46;51.78
39275;BME280;24980;48.874;2.332;2023-04-05T10:04:39;101801.59;;;19.48;51.78
39275;BME280;24980;48.874;2.332;2023-04-05T10:07:00;101805.29;;;19.49;51.75
39275;BME280;24980;48.874;2.332;2023-04-05T10:09:31;101799.44;;;19.51;51.77
39275;BME280;24980;48.874;2.332;2023-04-05T10:12:01;101796.94;;;19.53;51.75
39275;BME280;24980;48.874;2.332;2023-04-05T10:14:34;101795.80;;;19.55;51.74
39275;BME280;24980;48.874;2.332;2023-04-05T10:17:15;101791.50;;;19.56;51.74
39275;BME280;24980;48.874;2.332;2023-04-05T10:19:43;101791.88;;;19.58;51.75
39275;BME280;24980;48.874;2.332;2023-04-05T10:22:10;101789.52;;;19.60;51.80
39275;BME280;24980;48.874;2.332;2023-04-05T10:24:40;101789.41;;;19.63;51.85
39275;BME280;24980;48.874;2.332;2023-04-05T10:27:14;101787.18;;;19.67;51.89
39275;BME280;24980;48.874;2.332;2023-04-05T10:32:15;101780.49;;;19.72;51.99
39275;BME280;24980;48.874;2.332;2023-04-05T10:34:56;101778.36;;;19.75;52.05
39275;BME280;24980;48.874;2.332;2023-04-05T10:37:21;101774.94;;;19.77;52.08
39275;BME280;24980;48.874;2.332;2023-04-05T10:39:45;101769.74;;;19.80;52.09
39275;BME280;24980;48.874;2.332;2023-04-05T10:44:38;101764.08;;;19.86;52.03
39275;BME280;24980;48.874;2.332;2023-04-05T10:47:13;101761.23;;;19.88;51.98
39275;BME280;24980;48.874;2.332;2023-04-05T10:49:39;101759.84;;;19.90;51.94
39275;BME280;24980;48.874;2.332;2023-04-05T10:52:10;101758.50;;;19.92;51.93
39275;BME280;24980;48.874;2.332;2023-04-05T10:54:39;101756.08;;;19.94;51.91
39275;BME280;24980;48.874;2.332;2023-04-05T10:57:10;101753.68;;;19.97;51.89
39275;BME280;24980;48.874;2.332;2023-04-05T10:59:44;101751.43;;;19.99;51.86
39275;BME280;24980;48.874;2.332;2023-04-05T11:02:11;101752.88;;;20.02;51.83
39275;BME280;24980;48.874;2.332;2023-04-05T11:04:42;101746.65;;;20.04;51.82
39275;BME280;24980;48.874;2.332;2023-04-05T11:07:19;101748.71;;;20.06;51.80
39275;BME280;24980;48.874;2.332;2023-04-05T11:10:02;101744.84;;;20.07;51.77
39275;BME280;24980;48.874;2.332;2023-04-05T11:12:14;101741.24;;;20.11;51.71
39275;BME280;24980;48.874;2.332;2023-04-05T11:14:45;101736.30;;;20.13;51.65
39275;BME280;24980;48.874;2.332;2023-04-05T11:17:27;101741.47;;;20.15;51.60
39275;BME280;24980;48.874;2.332;2023-04-05T11:19:49;101739.86;;;20.16;51.55
39275;BME280;24980;48.874;2.332;2023-04-05T11:22:24;101736.28;;;20.19;51.52
39275;BME280;24980;48.874;2.332;2023-04-05T11:24:51;101738.62;;;20.20;51.48
39275;BME280;24980;48.874;2.332;2023-04-05T11:27:31;101735.12;;;20.22;51.44
39275;BME280;24980;48.874;2.332;2023-04-05T11:29:47;101731.93;;;20.24;51.41
39275;BME280;24980;48.874;2.332;2023-04-05T11:32:19;101731.62;;;20.25;51.36
39275;BME280;24980;48.874;2.332;2023-04-05T11:37:22;101723.59;;;20.28;51.33
39275;BME280;24980;48.874;2.332;2023-04-05T11:40:22;101722.94;;;20.31;51.36
39275;BME280;24980;48.874;2.332;2023-04-05T11:42:20;101722.11;;;20.34;51.36
39275;BME280;24980;48.874;2.332;2023-04-05T11:44:52;101720.28;;;20.35;51.33
39275;BME280;24980;48.874;2.332;2023-04-05T11:47:22;101719.71;;;20.38;51.30
39275;BME280;24980;48.874;2.332;2023-04-05T11:49:51;101715.25;;;20.40;51.28
39275;BME280;24980;48.874;2.332;2023-04-05T11:52:22;101714.77;;;20.41;51.24
39275;BME280;24980;48.874;2.332;2023-04-05T11:54:57;101714.77;;;20.41;51.21
39275;BME280;24980;48.874;2.332;2023-04-05T11:57:22;101713.58;;;20.41;51.16
39275;BME280;24980;48.874;2.332;2023-04-05T11:59:53;101713.41;;;20.41;51.13
39275;BME280;24980;48.874;2.332;2023-04-05T12:02:24;101707.28;;;20.42;51.09
39275;BME280;24980;48.874;2.332;2023-04-05T12:05:11;101702.98;;;20.41;51.07
39275;BME280;24980;48.874;2.332;2023-04-05T12:07:28;101701.81;;;20.42;51.06
39275;BME280;24980;48.874;2.332;2023-04-05T12:10:02;101694.48;;;20.42;51.06
39275;BME280;24980;48.874;2.332;2023-04-05T12:12:25;101695.58;;;20.42;51.07
39275;BME280;24980;48.874;2.332;2023-04-05T12:14:58;101690.84;;;20.42;51.07
39275;BME280;24980;48.874;2.332;2023-04-05T12:17:42;101689.77;;;20.44;51.08
39275;BME280;24980;48.874;2.332;2023-04-05T12:19:56;101686.40;;;20.46;51.11
39275;BME280;24980;48.874;2.332;2023-04-05T12:22:25;101682.05;;;20.47;51.14
39275;BME280;24980;48.874;2.332;2023-04-05T12:24:56;101681.20;;;20.49;51.17
39275;BME280;24980;48.874;2.332;2023-04-05T12:27:26;101674.90;;;20.52;51.18
39275;BME280;24980;48.874;2.332;2023-04-05T12:30:10;101677.45;;;20.54;51.19
39275;BME280;24980;48.874;2.332;2023-04-05T12:32:36;101667.95;;;20.57;51.19
39275;BME280;24980;48.874;2.332;2023-04-05T12:34:57;101670.16;;;20.60;51.21
39275;BME280;24980;48.874;2.332;2023-04-05T12:37:27;101671.01;;;20.62;51.22
39275;BME280;24980;48.874;2.332;2023-04-05T12:40:01;101661.85;;;20.64;51.19
39275;BME280;24980;48.874;2.332;2023-04-05T12:42:32;101663.44;;;20.65;51.17
39275;BME280;24980;48.874;2.332;2023-04-05T12:45:02;101658.40;;;20.66;51.14
39275;BME280;24980;48.874;2.332;2023-04-05T12:47:33;101655.70;;;20.68;51.11
39275;BME280;24980;48.874;2.332;2023-04-05T12:50:09;101655.81;;;20.70;51.08
39275;BME280;24980;48.874;2.332;2023-04-05T12:52:31;101655.39;;;20.72;51.07
39275;BME280;24980;48.874;2.332;2023-04-05T12:55:01;101651.34;;;20.74;51.05
39275;BME280;24980;48.874;2.332;2023-04-05T12:57:31;101650.95;;;20.76;51.04
39275;BME280;24980;48.874;2.332;2023-04-05T13:00:02;101651.36;;;20.78;51.04
39275;BME280;24980;48.874;2.332;2023-04-05T13:02:46;101644.12;;;20.78;51.04
39275;BME280;24980;48.874;2.332;2023-04-05T13:05:02;101640.26;;;20.81;51.02
39275;BME280;24980;48.874;2.332;2023-04-05T13:07:32;101639.84;;;20.84;51.00
39275;BME280;24980;48.874;2.332;2023-04-05T13:10:03;101637.66;;;20.84;50.96
39275;BME280;24980;48.874;2.332;2023-04-05T13:12:33;101637.77;;;20.87;50.96
39275;BME280;24980;48.874;2.332;2023-04-05T13:15:03;101631.95;;;20.88;50.95
39275;BME280;24980;48.874;2.332;2023-04-05T13:17:34;101627.75;;;20.89;50.92
39275;BME280;24980;48.874;2.332;2023-04-05T13:20:05;101627.06;;;20.90;50.90
39275;BME280;24980;48.874;2.332;2023-04-05T13:22:34;101620.84;;;20.91;50.89
39275;BME280;24980;48.874;2.332;2023-04-05T13:25:05;101615.70;;;20.94;50.89
39275;BME280;24980;48.874;2.332;2023-04-05T13:27:34;101615.81;;;20.96;50.88
39275;BME280;24980;48.874;2.332;2023-04-05T13:30:05;101613.11;;;20.98;50.86